Impacts TAF Board INFO
FOR SITUATIONAL AWARENESS. NOT TO BE USED FOR FLIGHT PLANNING PURPOSES.
IDs:

KFLL - Ft Lauderdale-Hollyw, FL, US

Issued at 0321 UTC 20 Feb 2018
Updated at 0343 UTC 20 Feb 2018
Potential Impact None Slight Moderate High
Time<<20/16Z 20/17Z 20/18Z 20/19Z 20/20Z 20/21Z 20/22Z 20/23Z 21/00Z 21/01Z 21/02Z 21/03Z 21/04Z>>
Type PRVL PRVL PRVL PRVL PRVL PRVL PRVL PRVL PRVL PRVL PRVL PRVL PRVL
VIS >6 >6 >6 >6 >6 >6 >6 >6 >6 >6 >6 >6 >6
CIG -- -- -- -- -- -- -- -- -- -- -- -- --
Cover SCT SCT SCT SCT SCT SCT SCT SCT SCT SCT SCT SCT SCT
FltCat VFR VFR VFR VFR VFR VFR VFR VFR VFR VFR VFR VFR VFR
WX -- -- -- -- -- -- -- -- -- -- -- -- --
WDir 120 120 120 120 120 110 110 110 110 110 110 110 110
WSpd 17 17 17 17 17 14 14 14 14 14 14 14 14
WGst 27 27 27 27 27 24 24 24 24 24 24 24 24

Raw TAF
KFLL 200321Z 2003/2106 10015KT P6SM VCSH FEW015 SCT025 BKN050
  FM200600 10016KT P6SM FEW015 SCT025 BKN050
  FM201400 12017G27KT P6SM FEW025 SCT050
  FM202100 11014G24KT P6SM FEW025 SCT050


METAR Board
Radar Display
Forecast Discussion

FOR SITUATIONAL AWARENESS. NOT TO BE USED FOR FLIGHT PLANNING PURPOSES.